sensor_id;sensor_type;location;lat;lon;timestamp;P1;durP1;ratioP1;P2;durP2;ratioP2
23113;SDS011;11726;50.122;8.832;2024-03-23T00:55:54;14.43;;;7.97;;
23113;SDS011;11726;50.122;8.832;2024-03-23T00:58:20;14.82;;;8.43;;
23113;SDS011;11726;50.122;8.832;2024-03-23T01:00:46;16.98;;;8.20;;
23113;SDS011;11726;50.122;8.832;2024-03-23T01:03:11;25.05;;;9.27;;
23113;SDS011;11726;50.122;8.832;2024-03-23T01:05:37;17.45;;;9.05;;
23113;SDS011;11726;50.122;8.832;2024-03-23T01:08:03;18.70;;;9.20;;
23113;SDS011;11726;50.122;8.832;2024-03-23T01:10:29;18.95;;;9.32;;
23113;SDS011;11726;50.122;8.832;2024-03-23T01:12:55;19.45;;;9.68;;
23113;SDS011;11726;50.122;8.832;2024-03-23T01:15:21;16.98;;;8.80;;
23113;SDS011;11726;50.122;8.832;2024-03-23T01:17:47;18.92;;;9.32;;
23113;SDS011;11726;50.122;8.832;2024-03-23T01:20:12;20.38;;;9.95;;
23113;SDS011;11726;50.122;8.832;2024-03-23T01:22:38;17.90;;;9.13;;
23113;SDS011;11726;50.122;8.832;2024-03-23T01:25:04;20.75;;;8.90;;
23113;SDS011;11726;50.122;8.832;2024-03-23T01:27:30;18.08;;;8.35;;
23113;SDS011;11726;50.122;8.832;2024-03-23T01:29:56;17.73;;;8.77;;
23113;SDS011;11726;50.122;8.832;2024-03-23T01:32:21;18.40;;;9.38;;
23113;SDS011;11726;50.122;8.832;2024-03-23T01:34:47;14.80;;;8.25;;
23113;SDS011;11726;50.122;8.832;2024-03-23T01:37:13;16.13;;;8.40;;
23113;SDS011;11726;50.122;8.832;2024-03-23T01:39:38;22.58;;;9.05;;
23113;SDS011;11726;50.122;8.832;2024-03-23T01:42:04;18.08;;;8.82;;
23113;SDS011;11726;50.122;8.832;2024-03-23T01:44:30;19.10;;;8.57;;
23113;SDS011;11726;50.122;8.832;2024-03-23T01:46:56;17.58;;;8.40;;
23113;SDS011;11726;50.122;8.832;2024-03-23T01:49:22;15.25;;;8.18;;
23113;SDS011;11726;50.122;8.832;2024-03-23T01:51:48;18.83;;;8.82;;
23113;SDS011;11726;50.122;8.832;2024-03-23T01:54:15;14.90;;;7.60;;
23113;SDS011;11726;50.122;8.832;2024-03-23T01:56:41;12.00;;;7.50;;
23113;SDS011;11726;50.122;8.832;2024-03-23T01:59:06;14.88;;;7.43;;
23113;SDS011;11726;50.122;8.832;2024-03-23T02:01:34;14.73;;;8.23;;
23113;SDS011;11726;50.122;8.832;2024-03-23T02:04:03;15.13;;;7.70;;
23113;SDS011;11726;50.122;8.832;2024-03-23T02:06:30;16.85;;;8.60;;
23113;SDS011;11726;50.122;8.832;2024-03-23T02:08:56;13.73;;;7.75;;
23113;SDS011;11726;50.122;8.832;2024-03-23T02:11:22;15.50;;;8.25;;
23113;SDS011;11726;50.122;8.832;2024-03-23T02:13:48;15.00;;;7.80;;
23113;SDS011;11726;50.122;8.832;2024-03-23T02:16:14;15.85;;;7.53;;
23113;SDS011;11726;50.122;8.832;2024-03-23T02:18:39;17.45;;;8.23;;
23113;SDS011;11726;50.122;8.832;2024-03-23T02:21:05;21.65;;;8.23;;
23113;SDS011;11726;50.122;8.832;2024-03-23T02:23:31;13.88;;;7.88;;
23113;SDS011;11726;50.122;8.832;2024-03-23T02:25:57;16.45;;;8.57;;
23113;SDS011;11726;50.122;8.832;2024-03-23T02:28:22;15.15;;;8.02;;
23113;SDS011;11726;50.122;8.832;2024-03-23T02:30:49;18.35;;;7.97;;
23113;SDS011;11726;50.122;8.832;2024-03-23T02:33:15;17.58;;;8.63;;
23113;SDS011;11726;50.122;8.832;2024-03-23T02:35:41;15.27;;;8.40;;
23113;SDS011;11726;50.122;8.832;2024-03-23T02:38:07;16.33;;;7.97;;
23113;SDS011;11726;50.122;8.832;2024-03-23T02:40:33;17.13;;;7.80;;
23113;SDS011;11726;50.122;8.832;2024-03-23T02:42:59;14.07;;;7.82;;
23113;SDS011;11726;50.122;8.832;2024-03-23T02:45:25;21.38;;;8.57;;
23113;SDS011;11726;50.122;8.832;2024-03-23T02:47:51;16.58;;;8.00;;
23113;SDS011;11726;50.122;8.832;2024-03-23T02:50:18;17.55;;;8.88;;
23113;SDS011;11726;50.122;8.832;2024-03-23T02:52:44;17.20;;;8.57;;
23113;SDS011;11726;50.122;8.832;2024-03-23T02:55:10;16.63;;;8.13;;
23113;SDS011;11726;50.122;8.832;2024-03-23T02:57:35;20.38;;;10.00;;
23113;SDS011;11726;50.122;8.832;2024-03-23T03:00:01;23.27;;;10.20;;
23113;SDS011;11726;50.122;8.832;2024-03-23T03:02:27;21.38;;;10.00;;
23113;SDS011;11726;50.122;8.832;2024-03-23T03:04:53;19.85;;;10.65;;
23113;SDS011;11726;50.122;8.832;2024-03-23T03:07:18;22.23;;;10.40;;
23113;SDS011;11726;50.122;8.832;2024-03-23T03:09:44;18.20;;;9.02;;
23113;SDS011;11726;50.122;8.832;2024-03-23T03:12:10;18.65;;;9.40;;
23113;SDS011;11726;50.122;8.832;2024-03-23T03:14:36;20.30;;;9.98;;
23113;SDS011;11726;50.122;8.832;2024-03-23T03:17:02;21.50;;;10.43;;
23113;SDS011;11726;50.122;8.832;2024-03-23T03:19:29;19.58;;;9.70;;
23113;SDS011;11726;50.122;8.832;2024-03-23T03:21:54;19.17;;;9.60;;
23113;SDS011;11726;50.122;8.832;2024-03-23T03:24:20;17.70;;;8.88;;
23113;SDS011;11726;50.122;8.832;2024-03-23T03:26:46;17.23;;;8.50;;
23113;SDS011;11726;50.122;8.832;2024-03-23T03:29:12;20.02;;;9.27;;
23113;SDS011;11726;50.122;8.832;2024-03-23T03:31:42;19.80;;;8.93;;
23113;SDS011;11726;50.122;8.832;2024-03-23T03:34:08;19.25;;;8.98;;
23113;SDS011;11726;50.122;8.832;2024-03-23T03:36:34;17.65;;;8.95;;
23113;SDS011;11726;50.122;8.832;2024-03-23T03:39:00;18.23;;;8.85;;
23113;SDS011;11726;50.122;8.832;2024-03-23T03:41:25;18.98;;;8.88;;
23113;SDS011;11726;50.122;8.832;2024-03-23T03:43:51;19.85;;;9.70;;
23113;SDS011;11726;50.122;8.832;2024-03-23T03:46:17;25.95;;;11.48;;
23113;SDS011;11726;50.122;8.832;2024-03-23T03:48:42;25.73;;;10.68;;
23113;SDS011;11726;50.122;8.832;2024-03-23T03:51:10;23.05;;;10.13;;
23113;SDS011;11726;50.122;8.832;2024-03-23T03:53:36;25.42;;;10.55;;
23113;SDS011;11726;50.122;8.832;2024-03-23T03:56:02;26.63;;;11.02;;
23113;SDS011;11726;50.122;8.832;2024-03-23T03:58:29;28.13;;;11.45;;
23113;SDS011;11726;50.122;8.832;2024-03-23T04:00:55;28.17;;;11.48;;
23113;SDS011;11726;50.122;8.832;2024-03-23T04:03:20;28.15;;;10.88;;
23113;SDS011;11726;50.122;8.832;2024-03-23T04:05:51;28.13;;;10.90;;
23113;SDS011;11726;50.122;8.832;2024-03-23T04:08:18;22.27;;;11.18;;
23113;SDS011;11726;50.122;8.832;2024-03-23T04:10:44;24.05;;;10.77;;
23113;SDS011;11726;50.122;8.832;2024-03-23T04:13:09;23.30;;;9.85;;
23113;SDS011;11726;50.122;8.832;2024-03-23T04:15:35;28.02;;;11.45;;
23113;SDS011;11726;50.122;8.832;2024-03-23T04:18:01;28.33;;;11.02;;
23113;SDS011;11726;50.122;8.832;2024-03-23T04:20:27;22.50;;;9.38;;
23113;SDS011;11726;50.122;8.832;2024-03-23T04:22:52;24.10;;;9.95;;
23113;SDS011;11726;50.122;8.832;2024-03-23T04:25:19;30.13;;;10.18;;
23113;SDS011;11726;50.122;8.832;2024-03-23T04:27:45;23.02;;;10.13;;
23113;SDS011;11726;50.122;8.832;2024-03-23T04:30:11;28.40;;;11.73;;
23113;SDS011;11726;50.122;8.832;2024-03-23T04:32:37;24.00;;;11.48;;
23113;SDS011;11726;50.122;8.832;2024-03-23T04:35:04;30.55;;;10.77;;
23113;SDS011;11726;50.122;8.832;2024-03-23T04:37:37;31.05;;;10.52;;
23113;SDS011;11726;50.122;8.832;2024-03-23T04:40:06;20.10;;;8.10;;
23113;SDS011;11726;50.122;8.832;2024-03-23T04:42:32;19.13;;;8.13;;
23113;SDS011;11726;50.122;8.832;2024-03-23T04:44:58;16.35;;;6.30;;
23113;SDS011;11726;50.122;8.832;2024-03-23T04:47:24;12.05;;;5.35;;
23113;SDS011;11726;50.122;8.832;2024-03-23T04:49:50;11.18;;;5.43;;
23113;SDS011;11726;50.122;8.832;2024-03-23T04:52:17;7.30;;;2.92;;
23113;SDS011;11726;50.122;8.832;2024-03-23T04:54:43;10.35;;;2.53;;
23113;SDS011;11726;50.122;8.832;2024-03-23T04:57:10;3.92;;;1.85;;
23113;SDS011;11726;50.122;8.832;2024-03-23T04:59:36;3.00;;;1.73;;
23113;SDS011;11726;50.122;8.832;2024-03-23T05:02:03;1.80;;;1.10;;
23113;SDS011;11726;50.122;8.832;2024-03-23T05:04:29;2.58;;;1.20;;
23113;SDS011;11726;50.122;8.832;2024-03-23T05:06:54;3.35;;;1.48;;
23113;SDS011;11726;50.122;8.832;2024-03-23T05:09:20;1.80;;;1.10;;
23113;SDS011;11726;50.122;8.832;2024-03-23T05:11:46;2.08;;;0.73;;
23113;SDS011;11726;50.122;8.832;2024-03-23T05:14:15;3.70;;;0.70;;
23113;SDS011;11726;50.122;8.832;2024-03-23T05:16:41;0.40;;;0.40;;
23113;SDS011;11726;50.122;8.832;2024-03-23T05:19:07;0.55;;;0.28;;
23113;SDS011;11726;50.122;8.832;2024-03-23T05:21:32;1.05;;;0.30;;
23113;SDS011;11726;50.122;8.832;2024-03-23T05:23:58;0.98;;;0.32;;
23113;SDS011;11726;50.122;8.832;2024-03-23T05:26:24;0.40;;;0.40;;
23113;SDS011;11726;50.122;8.832;2024-03-23T05:28:50;0.30;;;0.30;;
23113;SDS011;11726;50.122;8.832;2024-03-23T05:31:22;0.80;;;0.35;;
23113;SDS011;11726;50.122;8.832;2024-03-23T05:33:52;0.43;;;0.28;;
23113;SDS011;11726;50.122;8.832;2024-03-23T05:36:18;0.50;;;0.50;;
23113;SDS011;11726;50.122;8.832;2024-03-23T05:38:44;1.08;;;0.38;;
23113;SDS011;11726;50.122;8.832;2024-03-23T05:41:09;2.22;;;0.63;;
23113;SDS011;11726;50.122;8.832;2024-03-23T05:43:35;0.35;;;0.35;;
23113;SDS011;11726;50.122;8.832;2024-03-23T05:46:01;0.47;;;0.40;;
23113;SDS011;11726;50.122;8.832;2024-03-23T05:48:27;1.30;;;0.60;;
23113;SDS011;11726;50.122;8.832;2024-03-23T05:50:55;0.80;;;0.52;;
23113;SDS011;11726;50.122;8.832;2024-03-23T05:53:21;0.80;;;0.50;;
23113;SDS011;11726;50.122;8.832;2024-03-23T05:55:46;0.68;;;0.50;;
23113;SDS011;11726;50.122;8.832;2024-03-23T05:58:16;0.45;;;0.30;;
23113;SDS011;11726;50.122;8.832;2024-03-23T06:00:43;1.08;;;0.60;;
23113;SDS011;11726;50.122;8.832;2024-03-23T06:03:09;0.52;;;0.30;;
23113;SDS011;11726;50.122;8.832;2024-03-23T06:05:36;0.40;;;0.40;;
23113;SDS011;11726;50.122;8.832;2024-03-23T06:08:02;0.40;;;0.35;;
23113;SDS011;11726;50.122;8.832;2024-03-23T06:10:28;0.77;;;0.57;;
23113;SDS011;11726;50.122;8.832;2024-03-23T06:12:54;0.47;;;0.30;;
23113;SDS011;11726;50.122;8.832;2024-03-23T06:15:20;0.32;;;0.30;;
23113;SDS011;11726;50.122;8.832;2024-03-23T06:17:47;0.40;;;0.30;;
23113;SDS011;11726;50.122;8.832;2024-03-23T06:20:13;0.63;;;0.40;;
23113;SDS011;11726;50.122;8.832;2024-03-23T06:22:39;0.30;;;0.30;;
23113;SDS011;11726;50.122;8.832;2024-03-23T06:25:05;0.10;;;0.10;;
23113;SDS011;11726;50.122;8.832;2024-03-23T06:27:32;0.45;;;0.30;;
23113;SDS011;11726;50.122;8.832;2024-03-23T06:29:59;0.30;;;0.20;;
23113;SDS011;11726;50.122;8.832;2024-03-23T06:32:25;0.20;;;0.20;;
23113;SDS011;11726;50.122;8.832;2024-03-23T06:34:51;0.45;;;0.20;;
23113;SDS011;11726;50.122;8.832;2024-03-23T06:37:16;0.40;;;0.20;;
23113;SDS011;11726;50.122;8.832;2024-03-23T06:39:42;1.50;;;0.30;;
23113;SDS011;11726;50.122;8.832;2024-03-23T06:42:11;0.25;;;0.20;;
23113;SDS011;11726;50.122;8.832;2024-03-23T06:44:36;1.02;;;0.30;;
23113;SDS011;11726;50.122;8.832;2024-03-23T06:47:02;0.28;;;0.20;;
23113;SDS011;11726;50.122;8.832;2024-03-23T06:49:28;3.00;;;0.30;;
23113;SDS011;11726;50.122;8.832;2024-03-23T06:51:54;1.45;;;0.20;;
23113;SDS011;11726;50.122;8.832;2024-03-23T06:54:19;3.20;;;0.32;;
23113;SDS011;11726;50.122;8.832;2024-03-23T06:56:45;0.30;;;0.20;;
23113;SDS011;11726;50.122;8.832;2024-03-23T06:59:11;0.17;;;0.17;;
23113;SDS011;11726;50.122;8.832;2024-03-23T07:01:37;0.30;;;0.20;;
23113;SDS011;11726;50.122;8.832;2024-03-23T07:04:03;0.28;;;0.28;;
23113;SDS011;11726;50.122;8.832;2024-03-23T07:06:29;0.90;;;0.30;;
23113;SDS011;11726;50.122;8.832;2024-03-23T07:08:56;0.55;;;0.20;;
23113;SDS011;11726;50.122;8.832;2024-03-23T07:11:22;0.73;;;0.38;;
23113;SDS011;11726;50.122;8.832;2024-03-23T07:13:51;0.38;;;0.17;;
23113;SDS011;11726;50.122;8.832;2024-03-23T07:16:19;0.08;;;0.08;;
23113;SDS011;11726;50.122;8.832;2024-03-23T07:18:45;1.85;;;0.28;;
23113;SDS011;11726;50.122;8.832;2024-03-23T07:21:11;0.20;;;0.20;;
23113;SDS011;11726;50.122;8.832;2024-03-23T07:23:37;1.40;;;0.30;;
23113;SDS011;11726;50.122;8.832;2024-03-23T07:26:03;1.05;;;0.17;;
23113;SDS011;11726;50.122;8.832;2024-03-23T07:28:30;0.65;;;0.13;;
23113;SDS011;11726;50.122;8.832;2024-03-23T07:31:05;1.08;;;0.30;;
23113;SDS011;11726;50.122;8.832;2024-03-23T07:33:36;0.30;;;0.30;;
23113;SDS011;11726;50.122;8.832;2024-03-23T07:36:06;3.20;;;0.55;;
23113;SDS011;11726;50.122;8.832;2024-03-23T07:38:32;2.53;;;0.30;;
23113;SDS011;11726;50.122;8.832;2024-03-23T07:41:11;6.22;;;0.73;;
23113;SDS011;11726;50.122;8.832;2024-03-23T07:43:40;1.55;;;0.30;;
23113;SDS011;11726;50.122;8.832;2024-03-23T07:46:06;1.77;;;0.47;;
23113;SDS011;11726;50.122;8.832;2024-03-23T07:48:32;1.77;;;0.60;;
23113;SDS011;11726;50.122;8.832;2024-03-23T07:53:24;0.95;;;0.50;;
23113;SDS011;11726;50.122;8.832;2024-03-23T07:55:54;2.38;;;0.65;;
23113;SDS011;11726;50.122;8.832;2024-03-23T07:58:21;0.68;;;0.47;;
23113;SDS011;11726;50.122;8.832;2024-03-23T08:00:46;1.48;;;0.68;;
23113;SDS011;11726;50.122;8.832;2024-03-23T08:03:12;1.35;;;0.70;;
23113;SDS011;11726;50.122;8.832;2024-03-23T08:05:38;0.57;;;0.50;;
23113;SDS011;11726;50.122;8.832;2024-03-23T08:08:04;4.30;;;1.13;;
23113;SDS011;11726;50.122;8.832;2024-03-23T08:10:29;3.17;;;0.80;;
23113;SDS011;11726;50.122;8.832;2024-03-23T08:12:55;2.60;;;0.80;;
23113;SDS011;11726;50.122;8.832;2024-03-23T08:15:21;3.45;;;0.80;;
23113;SDS011;11726;50.122;8.832;2024-03-23T08:17:46;5.80;;;1.50;;
23113;SDS011;11726;50.122;8.832;2024-03-23T08:20:12;3.40;;;0.88;;
23113;SDS011;11726;50.122;8.832;2024-03-23T08:22:38;2.65;;;0.95;;
23113;SDS011;11726;50.122;8.832;2024-03-23T08:25:04;1.67;;;0.98;;
23113;SDS011;11726;50.122;8.832;2024-03-23T08:27:30;4.30;;;1.38;;
23113;SDS011;11726;50.122;8.832;2024-03-23T08:29:55;5.97;;;2.00;;
23113;SDS011;11726;50.122;8.832;2024-03-23T08:32:21;6.65;;;1.80;;
23113;SDS011;11726;50.122;8.832;2024-03-23T08:34:47;1.65;;;1.20;;
23113;SDS011;11726;50.122;8.832;2024-03-23T08:37:13;20.25;;;6.32;;
23113;SDS011;11726;50.122;8.832;2024-03-23T08:39:38;9.52;;;2.70;;
23113;SDS011;11726;50.122;8.832;2024-03-23T08:42:05;9.50;;;3.85;;
23113;SDS011;11726;50.122;8.832;2024-03-23T08:44:31;9.15;;;2.10;;
23113;SDS011;11726;50.122;8.832;2024-03-23T08:46:56;14.65;;;5.72;;
23113;SDS011;11726;50.122;8.832;2024-03-23T08:49:22;5.95;;;3.20;;
23113;SDS011;11726;50.122;8.832;2024-03-23T08:51:48;7.05;;;3.30;;
23113;SDS011;11726;50.122;8.832;2024-03-23T08:54:13;6.53;;;2.47;;
23113;SDS011;11726;50.122;8.832;2024-03-23T08:56:39;7.28;;;2.30;;
23113;SDS011;11726;50.122;8.832;2024-03-23T08:59:05;5.25;;;2.30;;
23113;SDS011;11726;50.122;8.832;2024-03-23T09:01:31;4.55;;;2.10;;
23113;SDS011;11726;50.122;8.832;2024-03-23T09:03:56;7.10;;;2.13;;
23113;SDS011;11726;50.122;8.832;2024-03-23T09:06:22;9.32;;;2.05;;
23113;SDS011;11726;50.122;8.832;2024-03-23T09:08:48;10.25;;;1.70;;
23113;SDS011;11726;50.122;8.832;2024-03-23T09:11:14;3.35;;;2.03;;
23113;SDS011;11726;50.122;8.832;2024-03-23T09:13:39;6.25;;;2.55;;
23113;SDS011;11726;50.122;8.832;2024-03-23T09:16:06;7.43;;;2.17;;
23113;SDS011;11726;50.122;8.832;2024-03-23T09:18:34;5.47;;;1.98;;
23113;SDS011;11726;50.122;8.832;2024-03-23T09:21:01;6.72;;;2.10;;
23113;SDS011;11726;50.122;8.832;2024-03-23T09:23:28;4.97;;;1.60;;
23113;SDS011;11726;50.122;8.832;2024-03-23T09:25:53;5.85;;;2.13;;
23113;SDS011;11726;50.122;8.832;2024-03-23T09:28:19;4.85;;;2.10;;
23113;SDS011;11726;50.122;8.832;2024-03-23T09:30:45;3.85;;;1.67;;
23113;SDS011;11726;50.122;8.832;2024-03-23T09:33:11;5.63;;;1.67;;
23113;SDS011;11726;50.122;8.832;2024-03-23T09:35:41;6.22;;;1.58;;
23113;SDS011;11726;50.122;8.832;2024-03-23T09:38:07;3.22;;;1.63;;
23113;SDS011;11726;50.122;8.832;2024-03-23T09:40:34;6.03;;;1.73;;
23113;SDS011;11726;50.122;8.832;2024-03-23T09:43:06;5.22;;;1.80;;
23113;SDS011;11726;50.122;8.832;2024-03-23T09:45:32;7.43;;;1.80;;
23113;SDS011;11726;50.122;8.832;2024-03-23T09:48:02;6.88;;;1.85;;
23113;SDS011;11726;50.122;8.832;2024-03-23T09:50:28;7.35;;;2.10;;
23113;SDS011;11726;50.122;8.832;2024-03-23T09:52:54;5.70;;;1.55;;
23113;SDS011;11726;50.122;8.832;2024-03-23T09:55:20;7.05;;;2.40;;
23113;SDS011;11726;50.122;8.832;2024-03-23T09:57:45;9.77;;;1.73;;
23113;SDS011;11726;50.122;8.832;2024-03-23T10:00:11;4.63;;;1.60;;
23113;SDS011;11726;50.122;8.832;2024-03-23T10:02:38;6.80;;;1.73;;
23113;SDS011;11726;50.122;8.832;2024-03-23T10:05:04;6.45;;;1.65;;
23113;SDS011;11726;50.122;8.832;2024-03-23T10:07:30;5.47;;;1.95;;
23113;SDS011;11726;50.122;8.832;2024-03-23T10:09:56;4.28;;;1.70;;
23113;SDS011;11726;50.122;8.832;2024-03-23T10:12:22;5.07;;;1.80;;
23113;SDS011;11726;50.122;8.832;2024-03-23T10:14:49;6.50;;;1.77;;
23113;SDS011;11726;50.122;8.832;2024-03-23T10:19:45;6.32;;;1.55;;
23113;SDS011;11726;50.122;8.832;2024-03-23T10:22:19;6.90;;;2.00;;
23113;SDS011;11726;50.122;8.832;2024-03-23T10:24:46;7.97;;;1.52;;
23113;SDS011;11726;50.122;8.832;2024-03-23T10:27:16;4.90;;;1.80;;
23113;SDS011;11726;50.122;8.832;2024-03-23T10:29:47;3.83;;;1.48;;
23113;SDS011;11726;50.122;8.832;2024-03-23T10:32:15;5.47;;;1.58;;
23113;SDS011;11726;50.122;8.832;2024-03-23T10:34:41;5.90;;;1.50;;
23113;SDS011;11726;50.122;8.832;2024-03-23T10:37:08;2.75;;;1.38;;
23113;SDS011;11726;50.122;8.832;2024-03-23T10:39:35;4.63;;;1.65;;
23113;SDS011;11726;50.122;8.832;2024-03-23T10:42:03;5.32;;;1.48;;
23113;SDS011;11726;50.122;8.832;2024-03-23T10:44:33;7.50;;;1.38;;
23113;SDS011;11726;50.122;8.832;2024-03-23T10:47:03;4.70;;;1.23;;
23113;SDS011;11726;50.122;8.832;2024-03-23T10:49:30;4.03;;;1.00;;
23113;SDS011;11726;50.122;8.832;2024-03-23T10:52:01;1.92;;;0.75;;
23113;SDS011;11726;50.122;8.832;2024-03-23T10:54:29;3.10;;;1.20;;
23113;SDS011;11726;50.122;8.832;2024-03-23T10:56:57;7.38;;;1.48;;
23113;SDS011;11726;50.122;8.832;2024-03-23T10:59:28;6.05;;;1.50;;
23113;SDS011;11726;50.122;8.832;2024-03-23T11:01:59;5.05;;;1.35;;
23113;SDS011;11726;50.122;8.832;2024-03-23T11:04:37;4.07;;;1.20;;
23113;SDS011;11726;50.122;8.832;2024-03-23T11:07:28;3.22;;;1.08;;
23113;SDS011;11726;50.122;8.832;2024-03-23T11:09:58;4.93;;;0.90;;
23113;SDS011;11726;50.122;8.832;2024-03-23T11:12:28;4.50;;;1.02;;
23113;SDS011;11726;50.122;8.832;2024-03-23T11:17:36;8.48;;;1.10;;
23113;SDS011;11726;50.122;8.832;2024-03-23T11:20:03;3.22;;;1.10;;
23113;SDS011;11726;50.122;8.832;2024-03-23T11:22:46;4.35;;;1.10;;
23113;SDS011;11726;50.122;8.832;2024-03-23T11:25:13;3.10;;;0.95;;
23113;SDS011;11726;50.122;8.832;2024-03-23T11:27:43;0.88;;;0.50;;
23113;SDS011;11726;50.122;8.832;2024-03-23T11:30:20;1.00;;;0.70;;
23113;SDS011;11726;50.122;8.832;2024-03-23T11:32:48;1.02;;;0.52;;
23113;SDS011;11726;50.122;8.832;2024-03-23T11:35:34;2.33;;;1.00;;
23113;SDS011;11726;50.122;8.832;2024-03-23T11:38:12;1.65;;;0.70;;
23113;SDS011;11726;50.122;8.832;2024-03-23T11:43:10;3.85;;;1.10;;
23113;SDS011;11726;50.122;8.832;2024-03-23T11:45:38;6.47;;;1.20;;
23113;SDS011;11726;50.122;8.832;2024-03-23T11:48:08;3.95;;;0.80;;
23113;SDS011;11726;50.122;8.832;2024-03-23T11:50:35;4.35;;;0.90;;
23113;SDS011;11726;50.122;8.832;2024-03-23T11:53:12;4.28;;;1.00;;
23113;SDS011;11726;50.122;8.832;2024-03-23T11:55:41;4.95;;;1.30;;
23113;SDS011;11726;50.122;8.832;2024-03-23T11:58:11;4.88;;;0.90;;
23113;SDS011;11726;50.122;8.832;2024-03-23T12:00:37;1.63;;;0.80;;
23113;SDS011;11726;50.122;8.832;2024-03-23T12:03:04;3.10;;;0.90;;
23113;SDS011;11726;50.122;8.832;2024-03-23T12:05:31;5.22;;;1.10;;
23113;SDS011;11726;50.122;8.832;2024-03-23T12:10:53;3.40;;;0.90;;
23113;SDS011;11726;50.122;8.832;2024-03-23T12:13:40;1.52;;;0.95;;
23113;SDS011;11726;50.122;8.832;2024-03-23T12:16:11;4.20;;;1.08;;
23113;SDS011;11726;50.122;8.832;2024-03-23T12:18:42;1.85;;;0.80;;
23113;SDS011;11726;50.122;8.832;2024-03-23T12:21:09;2.95;;;0.75;;
23113;SDS011;11726;50.122;8.832;2024-03-23T12:23:35;4.15;;;1.20;;
23113;SDS011;11726;50.122;8.832;2024-03-23T12:26:00;1.90;;;0.98;;
23113;SDS011;11726;50.122;8.832;2024-03-23T12:28:26;8.10;;;1.30;;
23113;SDS011;11726;50.122;8.832;2024-03-23T12:30:52;2.63;;;0.95;;
23113;SDS011;11726;50.122;8.832;2024-03-23T12:33:19;2.17;;;0.90;;
23113;SDS011;11726;50.122;8.832;2024-03-23T12:35:46;7.85;;;1.23;;
23113;SDS011;11726;50.122;8.832;2024-03-23T12:38:12;2.67;;;1.02;;
23113;SDS011;11726;50.122;8.832;2024-03-23T12:40:38;3.50;;;1.15;;
23113;SDS011;11726;50.122;8.832;2024-03-23T12:43:04;5.22;;;1.00;;
23113;SDS011;11726;50.122;8.832;2024-03-23T12:45:30;3.15;;;1.27;;
23113;SDS011;11726;50.122;8.832;2024-03-23T12:47:55;2.85;;;1.17;;
23113;SDS011;11726;50.122;8.832;2024-03-23T12:50:21;5.07;;;1.40;;
23113;SDS011;11726;50.122;8.832;2024-03-23T12:52:47;3.15;;;1.20;;
23113;SDS011;11726;50.122;8.832;2024-03-23T12:55:13;3.22;;;1.00;;
23113;SDS011;11726;50.122;8.832;2024-03-23T12:57:39;3.25;;;1.17;;
23113;SDS011;11726;50.122;8.832;2024-03-23T13:00:06;2.88;;;1.20;;
23113;SDS011;11726;50.122;8.832;2024-03-23T13:02:34;4.15;;;1.10;;
23113;SDS011;11726;50.122;8.832;2024-03-23T13:05:00;2.25;;;0.82;;
23113;SDS011;11726;50.122;8.832;2024-03-23T13:07:26;4.45;;;1.40;;
23113;SDS011;11726;50.122;8.832;2024-03-23T13:09:52;3.75;;;1.30;;
23113;SDS011;11726;50.122;8.832;2024-03-23T13:12:18;3.35;;;0.90;;
23113;SDS011;11726;50.122;8.832;2024-03-23T13:14:45;4.93;;;1.17;;
23113;SDS011;11726;50.122;8.832;2024-03-23T13:17:12;5.05;;;1.67;;
23113;SDS011;11726;50.122;8.832;2024-03-23T13:19:37;3.80;;;0.95;;
23113;SDS011;11726;50.122;8.832;2024-03-23T13:22:03;2.83;;;1.20;;
23113;SDS011;11726;50.122;8.832;2024-03-23T13:24:29;3.17;;;1.38;;
23113;SDS011;11726;50.122;8.832;2024-03-23T13:26:56;4.13;;;1.30;;
23113;SDS011;11726;50.122;8.832;2024-03-23T13:29:22;4.05;;;1.35;;
23113;SDS011;11726;50.122;8.832;2024-03-23T13:31:49;2.45;;;0.75;;
23113;SDS011;11726;50.122;8.832;2024-03-23T13:34:16;1.58;;;0.82;;
23113;SDS011;11726;50.122;8.832;2024-03-23T13:36:42;2.75;;;1.50;;
23113;SDS011;11726;50.122;8.832;2024-03-23T13:39:09;1.88;;;1.50;;
23113;SDS011;11726;50.122;8.832;2024-03-23T13:41:39;1.85;;;0.85;;
23113;SDS011;11726;50.122;8.832;2024-03-23T13:44:06;4.13;;;0.90;;
23113;SDS011;11726;50.122;8.832;2024-03-23T13:46:33;1.90;;;0.68;;
23113;SDS011;11726;50.122;8.832;2024-03-23T13:48:59;2.55;;;1.77;;
23113;SDS011;11726;50.122;8.832;2024-03-23T13:51:26;2.05;;;0.90;;
23113;SDS011;11726;50.122;8.832;2024-03-23T13:53:55;1.73;;;1.13;;
23113;SDS011;11726;50.122;8.832;2024-03-23T13:56:22;3.10;;;1.45;;
23113;SDS011;11726;50.122;8.832;2024-03-23T13:58:48;5.00;;;3.65;;
23113;SDS011;11726;50.122;8.832;2024-03-23T14:01:15;1.10;;;0.88;;
23113;SDS011;11726;50.122;8.832;2024-03-23T14:03:41;3.60;;;1.20;;
23113;SDS011;11726;50.122;8.832;2024-03-23T14:06:08;8.25;;;5.97;;
23113;SDS011;11726;50.122;8.832;2024-03-23T14:08:35;2.88;;;1.65;;
23113;SDS011;11726;50.122;8.832;2024-03-23T14:11:04;3.85;;;2.90;;
23113;SDS011;11726;50.122;8.832;2024-03-23T14:13:31;0.40;;;0.40;;
23113;SDS011;11726;50.122;8.832;2024-03-23T14:15:57;0.57;;;0.17;;
23113;SDS011;11726;50.122;8.832;2024-03-23T14:18:24;0.88;;;0.30;;
23113;SDS011;11726;50.122;8.832;2024-03-23T14:20:51;0.40;;;0.30;;
23113;SDS011;11726;50.122;8.832;2024-03-23T14:23:22;0.73;;;0.30;;
23113;SDS011;11726;50.122;8.832;2024-03-23T14:25:48;3.92;;;0.55;;
23113;SDS011;11726;50.122;8.832;2024-03-23T14:28:14;0.95;;;0.47;;
23113;SDS011;11726;50.122;8.832;2024-03-23T14:30:41;0.60;;;0.40;;
23113;SDS011;11726;50.122;8.832;2024-03-23T14:33:07;5.05;;;0.45;;
23113;SDS011;11726;50.122;8.832;2024-03-23T14:35:33;0.93;;;0.40;;
23113;SDS011;11726;50.122;8.832;2024-03-23T14:37:59;0.63;;;0.52;;
23113;SDS011;11726;50.122;8.832;2024-03-23T14:40:24;0.60;;;0.47;;
23113;SDS011;11726;50.122;8.832;2024-03-23T14:42:53;2.05;;;0.60;;
23113;SDS011;11726;50.122;8.832;2024-03-23T14:45:23;0.95;;;0.60;;
23113;SDS011;11726;50.122;8.832;2024-03-23T14:47:53;2.15;;;0.65;;
23113;SDS011;11726;50.122;8.832;2024-03-23T14:50:18;3.00;;;0.40;;
23113;SDS011;11726;50.122;8.832;2024-03-23T14:52:45;1.88;;;0.60;;
23113;SDS011;11726;50.122;8.832;2024-03-23T14:55:11;2.35;;;0.50;;
23113;SDS011;11726;50.122;8.832;2024-03-23T14:57:37;0.65;;;0.30;;
23113;SDS011;11726;50.122;8.832;2024-03-23T15:00:09;2.85;;;0.70;;
23113;SDS011;11726;50.122;8.832;2024-03-23T15:02:39;0.60;;;0.55;;
23113;SDS011;11726;50.122;8.832;2024-03-23T15:05:05;0.43;;;0.32;;
23113;SDS011;11726;50.122;8.832;2024-03-23T15:07:37;0.60;;;0.50;;
23113;SDS011;11726;50.122;8.832;2024-03-23T15:10:05;0.73;;;0.38;;
23113;SDS011;11726;50.122;8.832;2024-03-23T15:12:32;1.27;;;0.40;;
23113;SDS011;11726;50.122;8.832;2024-03-23T15:14:58;2.17;;;0.50;;
23113;SDS011;11726;50.122;8.832;2024-03-23T15:17:26;2.30;;;0.40;;
23113;SDS011;11726;50.122;8.832;2024-03-23T15:19:51;0.50;;;0.50;;
23113;SDS011;11726;50.122;8.832;2024-03-23T15:22:19;2.47;;;0.50;;
23113;SDS011;11726;50.122;8.832;2024-03-23T15:24:46;1.15;;;0.32;;
23113;SDS011;11726;50.122;8.832;2024-03-23T15:27:12;1.30;;;0.45;;
23113;SDS011;11726;50.122;8.832;2024-03-23T15:29:38;1.23;;;0.80;;
23113;SDS011;11726;50.122;8.832;2024-03-23T15:32:04;1.98;;;0.50;;
23113;SDS011;11726;50.122;8.832;2024-03-23T15:34:30;1.55;;;0.57;;
23113;SDS011;11726;50.122;8.832;2024-03-23T15:36:55;1.40;;;0.55;;
23113;SDS011;11726;50.122;8.832;2024-03-23T15:39:21;0.52;;;0.45;;
23113;SDS011;11726;50.122;8.832;2024-03-23T15:41:47;0.75;;;0.63;;
23113;SDS011;11726;50.122;8.832;2024-03-23T15:44:13;0.77;;;0.40;;
23113;SDS011;11726;50.122;8.832;2024-03-23T15:46:39;1.08;;;0.80;;
23113;SDS011;11726;50.122;8.832;2024-03-23T15:49:05;1.33;;;0.60;;